Tiempo atmosférico en la estación meteorológica de Calatayud, Zaragoza (600 m.)



Fecha
DESCASC
Temp. máxima en grados centígrados (hora)
DESCASC
Temp. mínima en grados centígrados (hora)
DESCASC
Temp. media en grados centígrados
DESCASC
Racha de viento máxima en m/sg (hora)
DESCASC
Velocidad máxima media en intervalos de 10 minutos(hora)
DESCASC
Precipitaciones diarias en mm
DESCASC
Precipitaciones de 00:00 a 06:00 en mm
DESCASC
Precipitaciones de 06:00 a 12:00 en mm
DESCASC
Precipitaciones de 12:00 a 18:00 en mm
DESCASC
Precipitaciones de 18:00 a 24:00 en mm
DESCASC
22-11-2020 16.2 (15:50) -3.6 (08:00) 6.3 3.89 (18:00) 2.78 (18:00) 0 0 0 0 0
21-11-2020 15.4 (16:00) -2.2 (08:10) 6.6 3.33 (17:00) 2.22 (16:50) 0 0 0 0 0
20-11-2020 16.8 (14:20) 0.8 (08:30) 8.8 8.61 (16:30) 5.28 (16:30) 0 0 0 0 0
19-11-2020 19.9 (15:30) 3.2 (00:00) 11.5 9.72 (19:50) 5.83 (16:50) 0 0 0 0 0
18-11-2020 23.4 (16:30) 2.4 (00:00) 12.9 5 (17:20) 3.61 (17:20) 0 0 0 0 0
17-11-2020 19.4 (16:20) 3.9 (00:00) 11.6 3.89 (13:30) 1.94 (12:00) 0 0 0 0 0
16-11-2020 18.4 (16:10) 7.4 (00:00) 12.9 7.22 (02:00) 4.44 (17:00) 0 0 0 0 0
15-11-2020 20.2 (14:40) 7.3 (00:00) 13.8 12.78 (13:30) 7.22 (16:40) 0 0 0 0 0
14-11-2020 13.1 (16:20) 4.1 (00:00) 8.6 2.5 (23:10) 1.67 (23:10) 0.2 0 0 0 0.2
13-11-2020 16.8 (16:30) 5 (00:00) 10.9 3.89 (17:30) 3.06 (17:00) 0 0 0 0 0
12-11-2020 16.1 (15:50) 5.8 (00:00) 11 3.06 (17:40) 1.94 (17:40) 0 0 0 0 0
11-11-2020 19.7 (16:20) 1.6 (00:00) 10.7 3.89 (19:10) 2.78 (19:10) 0 0 0 0 0
10-11-2020 18.8 (16:10) 3.5 (00:00) 11.1 4.44 (15:00) 2.22 (15:00) 0 0 0 0 0
09-11-2020 18.8 (16:20) 3.8 (00:00) 11.3 5 (15:30) 3.06 (15:00) 0.4 0 0.4 0 0
08-11-2020 19.9 (14:50) 5.5 (00:00) 12.7 8.89 (11:40) 5 (11:40) 0 0 0 0 0
07-11-2020 18 (15:00) 9.3 (00:00) 13.7 16.11 (05:40) 7.78 (05:40) 13.2 9.6 3.2 0.4 0
06-11-2020 20.5 (15:10) 9.4 (00:00) 14.9 10 (14:00) 6.39 (17:10) 0 0 0 0 0
05-11-2020 11.3 (11:20) 6.6 (00:00) 9 10.28 (03:30) 6.94 (03:30) 0.8 0 0 0 0.8
04-11-2020 9.2 (01:10) 6.2 (00:00) 7.7 8.61 (23:40) 5.28 (19:10) 1.8 0 0.2 0.8 0.8
03-11-2020 13.3 (12:30) 9 (00:00) 11.2 9.17 (12:00) 5.83 (12:00) 1.4 0 0 1.2 0.2
02-11-2020 24.4 (15:40) 7.1 (00:00) 15.7 7.22 (13:10) 3.89 (14:10) 0 0 0 0 0
01-11-2020 24.6 (16:20) 6.3 (00:00) 15.5 7.22 (14:50) 4.44 (14:20) 0 0 0 0 0
31-10-2020 25.1 (15:50) 3.2 (00:00) 14.2 7.5 (16:00) 4.72 (16:00) 0 0 0 0 0
30-10-2020 23.1 (17:30) 2.5 (00:00) 12.8 3.06 (14:20) 1.39 (02:10) 0 0 0 0 0
29-10-2020 21.6 (16:50) 5.4 (00:00) 13.5 5 (13:00) 2.78 (18:30) 0 0 0 0 0
28-10-2020 20.2 (15:50) 8.7 (00:00) 14.5 9.72 (18:00) 5.83 (18:00) 0 0 0 0 0
27-10-2020 16.3 (15:50) 5 (00:00) 10.6 14.17 (12:00) 8.89 (11:50) 0 0 0 0 0
26-10-2020 13.4 (16:50) 5.5 (00:00) 9.4 13.89 (10:50) 8.89 (10:50) 0 0 0 0 0

Gráficas

Temp. máximas Temp. mínimas Temp. medias Precipitaciones Rachas de viento máximas Velocidades máximas media en intervalos de 10 minutos

Datos horarios

Fecha y hora oficial Temperatura (ºC) Velocidad del viento (km/h) Dirección del viento Racha (km/h) Dirección de racha Precipitación (mm) Presión (hPa) Tendencia (hPa) Humedad (%)
2020-11-24 23:00:00 3.8 2 Sudeste 6 Sur 0 951.1 0.1 70
2020-11-24 22:00:00 4.6 0 Calma 4 Sur 0 951.1 0.3 66
2020-11-24 21:00:00 6.2 2 Sudeste 5 Nordeste 0 951 -- 61
2020-11-24 20:00:00 7.7 4 Nordeste 6 Nordeste 0 951 -- 57
2020-11-24 19:00:00 10.2 0 Calma 6 Este 0 950.8 -- 48
2020-11-24 18:00:00 12.4 5 Sudeste 8 Sudeste 0 950.3 -- 43
2020-11-24 17:00:00 15.6 4 Sudeste 6 Sudeste 0 950.4 -- 35
2020-11-24 16:00:00 16.5 4 Sur 11 Sur 0 950.6 -- 31
2020-11-24 15:00:00 16 2 Norte 9 Sur 0 951.3 -- 35
2020-11-24 14:00:00 13.4 3 Norte 9 Nordeste 0 952.5 -- 41
2020-11-24 13:00:00 11.3 3 Oeste 6 Oeste 0 953.6 -- 48
2020-11-24 12:00:00 7.4 3 Oeste 6 Oeste 0 955.1 -- 61
2020-11-24 11:00:00 2.5 2 Oeste 6 Oeste 0 956 -- 79
2020-11-24 10:00:00 -1.1 0 Calma 4 Nordeste 0 956.4 -- 88
2020-11-24 09:00:00 -2.3 0 Calma 3 Nordeste 0 956.3 -- 88
2020-11-24 08:00:00 -2.4 2 Sudeste 3 Este 0 956.1 -- 88
2020-11-24 07:00:00 -2 0 Calma 3 Oeste 0 955.9 -- 88
2020-11-24 06:00:00 -1.6 2 Sudoeste 3 Sudoeste 0 956 -- 86
2020-11-24 05:00:00 -0.9 0 Calma 4 Nordeste 0 956.1 -- 85
2020-11-24 04:00:00 -0.4 0 Calma 3 Este 0 956.6 -- 85
2020-11-24 03:00:00 -0.2 0 Calma 4 Sudeste 0 956.9 -- 84
2020-11-24 02:00:00 0.4 0 Calma 4 Nordeste 0 957.1 -- 81
2020-11-24 01:00:00 1.3 2 Nordeste 4 Nordeste 0 957.5 -- 80
2020-11-24 00:00:00 2 2 Sur 4 Sur 0 957.7 -- 77
2020-11-23 23:00:00 2.8 5 Sur 6 Sur 0 958 -- 74
2020-11-23 22:00:00 3.8 0 Calma 4 Sudoeste 0 958 -- 71
2020-11-23 21:00:00 4.8 2 Sudoeste 3 Sudoeste 0 958 -- 67
2020-11-23 20:00:00 7.1 0 Calma 5 Sudeste 0 957.7 -- 58
2020-11-23 19:00:00 9 3 Este 9 Este 0 957.4 -- 54
2020-11-23 18:00:00 10.7 6 Este 11 Este 0 957.1 -- 49
2020-11-23 17:00:00 14.3 8 Nordeste 11 Nordeste 0 956.8 -- 38
2020-11-23 16:00:00 14.6 4 Nordeste 8 Norte 0 956.9 -- 35
2020-11-23 15:00:00 13.8 4 Norte 8 Nordeste 0 957.4 -- 36
2020-11-23 14:00:00 11.9 2 Norte 8 Nordeste 0 958.3 -- 43
2020-11-23 13:00:00 10.3 3 Oeste 7 Oeste 0 959.2 -- 48
2020-11-23 12:00:00 6.7 2 Noroeste 6 Norte 0 960.4 -- 60
2020-11-23 11:00:00 3.1 2 Oeste 5 Oeste 0 960.9 -- 78
2020-11-23 10:00:00 -1 0 Calma 4 Sudoeste 0 961.1 -- 88
2020-11-23 09:00:00 -2 3 Nordeste 4 Nordeste 0 960.8 -- 87
2020-11-23 08:00:00 -2.4 0 Calma 4 Nordeste 0 960.2 -- 86
2020-11-23 07:00:00 -1.8 3 Norte 4 Norte 0 960 -- 88
2020-11-23 06:00:00 -1.8 2 Noroeste 4 Nordeste 0 960.1 -- 86
2020-11-23 05:00:00 -1.2 3 Norte 4 Nordeste 0 959.8 -- 85
2020-11-23 04:00:00 -0.5 0 Calma 3 Nordeste 0 959.9 -- 84
2020-11-23 03:00:00 0.2 3 Norte 5 Sudeste 0 959.8 -- 83
2020-11-23 02:00:00 0.7 0 Calma 5 Sudeste 0 959.7 -- 81
2020-11-23 01:00:00 1.4 3 Sudoeste 4 Sur 0 959.9 -- 78
2020-11-23 00:00:00 2.4 3 Nordeste 5 Nordeste 0 959.6 -- 75
2020-11-22 23:00:00 3.2 2 Este 8 Sur 0 959.6 -- 70
2020-11-22 22:00:00 4.5 4 Sudeste 7 Sur 0 959.4 -- 67
2020-11-22 21:00:00 6.5 5 Sur 7 Sur 0 958.9 -- 61
2020-11-22 20:00:00 7.7 0 Calma 8 Nordeste 0 958.4 -- 57
2020-11-22 19:00:00 9 8 Nordeste 13 Nordeste 0 957.9 -- 53
2020-11-22 18:00:00 11.4 10 Nordeste 14 Nordeste 0 957.2 -- 46
2020-11-22 17:00:00 15.3 7 Nordeste 11 Nordeste 0 956.9 -- 35
2020-11-22 16:00:00 15.9 7 Nordeste 11 Norte 0 956.9 -- 34
2020-11-22 15:00:00 14.8 6 Norte 12 Norte 0 957.4 -- 38
2020-11-22 14:00:00 12.4 6 Nordeste 10 Nordeste 0 958 -- 42
2020-11-22 13:00:00 9.6 5 Nordeste 9 Nordeste 0 959 -- 47
2020-11-22 12:00:00 6.9 2 Norte 5 Noroeste 0 960 -- 52
2020-11-22 11:00:00 2.1 3 Noroeste 6 Nordeste 0 960.7 -- 68
2020-11-22 10:00:00 -1.7 0 Calma 4 Noroeste 0 961.1 -- 80
2020-11-22 09:00:00 -3.2 0 Calma 3 Oeste 0 960.8 -- 81
2020-11-22 08:00:00 -3.6 0 Calma 3 Este 0 960.6 -- 82
2020-11-22 07:00:00 -3.3 0 Calma 3 Noroeste 0 960.5 -- 81
2020-11-22 06:00:00 -2.8 0 Calma 5 Este 0 960.2 -- 78
2020-11-22 05:00:00 -2.3 2 Este 5 Nordeste 0 960.3 -- 76
2020-11-22 04:00:00 -1.9 4 Nordeste 5 Este 0 960.3 -- 75
2020-11-22 03:00:00 -1.5 3 Sudeste 4 Este 0 960.4 -- 72
2020-11-22 02:00:00 -0.9 0 Calma 3 Este 0 960.2 -- 70
2020-11-22 01:00:00 -0.4 2 Oeste 4 Oeste 0 960.3 -- 68
2020-11-22 00:00:00 0.4 3 Oeste 6 Sur 0 960.3 -- 63
2020-11-21 23:00:00 1.5 3 Sudoeste 6 Este 0 960.4 -- 60
2020-11-21 22:00:00 2.4 3 Este 10 Sur 0 960.2 -- 56
2020-11-21 21:00:00 4 3 Este 7 Sur 0 959.9 -- 48
2020-11-21 20:00:00 5.1 7 Sudoeste 10 Sudoeste 0 959.5 -- 47
2020-11-21 19:00:00 8 3 Sudeste 9 Este 0 959.1 -- 33
2020-11-21 18:00:00 10.6 6 Este 11 Nordeste 0 958.6 -- 28
2020-11-21 17:00:00 13.9 8 Nordeste 12 Nordeste 0 958.5 -- 22
2020-11-21 16:00:00 15.4 5 Norte 10 Norte 0 958.5 -- 22
2020-11-21 15:00:00 14.2 5 Norte 10 Norte 0 958.8 -- 22
2020-11-21 14:00:00 12.1 4 Norte 9 Nordeste 0 959.3 -- 24
2020-11-21 13:00:00 10.5 3 Norte 8 Norte 0 960 -- 34
2020-11-21 12:00:00 7.7 3 Oeste 8 Oeste 0 960.8 -- 45
2020-11-21 11:00:00 4.2 3 Oeste 6 Noroeste 0 961.2 -- 59
2020-11-21 10:00:00 -0.4 2 Noroeste 5 Nordeste 0 961.3 -- 79
2020-11-21 09:00:00 -2 2 Noroeste 5 Este 0 961 -- 81
2020-11-21 08:00:00 -2.1 0 Calma 3 Noroeste 0 960.5 -- 81
2020-11-21 07:00:00 -1.6 2 Oeste 5 Norte 0 960.2 -- 80
2020-11-21 06:00:00 -0.9 2 Norte 4 Sudeste 0 959.9 -- 77
2020-11-21 05:00:00 -0.7 3 Noroeste 6 Sudeste 0 959.6 -- 77
2020-11-21 04:00:00 0.2 2 Nordeste 5 Nordeste 0 959.8 -- 74
2020-11-21 03:00:00 1 4 Nordeste 6 Sudoeste 0 959.8 -- 72
2020-11-21 02:00:00 1.6 3 Oeste 6 Nordeste 0 960.1 -- 70
2020-11-21 01:00:00 2.7 3 Este 7 Nordeste 0 960.4 -- 65
2020-11-21 00:00:00 3.7 3 Este 8 Sur 0 960.4 -- 62
2020-11-20 23:00:00 4.4 0 Calma 12 Sudeste 0 960.3 -- 58
2020-11-20 22:00:00 7.3 9 Sur 14 Sur 0 959.9 -- 47
2020-11-20 21:00:00 7.7 12 Sur 16 Sur 0 960 -- 46
2020-11-20 20:00:00 8.6 9 Sur 13 Sur 0 959.8 -- 46
2020-11-20 19:00:00 9.9 6 Sur 10 Sur 0 959.8 -- 36
2020-11-20 18:00:00 11.9 3 Este 23 Nordeste 0 959.6 -- 30
2020-11-20 17:00:00 14.1 18 Nordeste 31 Nordeste 0 959.3 -- 24
2020-11-20 16:00:00 16 12 Nordeste 26 Nordeste 0 959.6 -- 17
2020-11-20 15:00:00 16.6 5 Norte 15 Nordeste 0 960 -- 19
2020-11-20 14:00:00 16 5 Sudeste 17 Sudeste 0 960.5 -- 29
2020-11-20 13:00:00 14.6 5 Sur 11 Sudoeste 0 961.4 -- 31
2020-11-20 12:00:00 10.2 3 Nordeste 10 Este 0 962.7 -- 59
2020-11-20 11:00:00 5.4 3 Norte 10 Nordeste 0 963.5 -- 84
2020-11-20 10:00:00 1.5 3 Oeste 6 Oeste 0 963.7 -- 92
2020-11-20 09:00:00 1.1 2 Norte 9 Nordeste 0 963.4 -- 91
2020-11-20 08:00:00 1.3 2 Norte 6 Nordeste 0 963.1 -- 90
2020-11-20 07:00:00 1.7 4 Norte 9 Sur 0 962.9 -- 90
2020-11-20 06:00:00 2.5 2 Sudeste 8 Este 0 962.8 -- 90
2020-11-20 05:00:00 2.9 7 Norte 10 Nordeste 0 963.1 -- 90
2020-11-20 04:00:00 3.6 5 Nordeste 10 Sur 0 963.5 -- 89
2020-11-20 03:00:00 4.5 8 Sur 11 Sur 0 963.6 -- 88
2020-11-20 02:00:00 5 8 Nordeste 9 Nordeste 0 964.3 -- 87
2020-11-20 01:00:00 6.2 3 Oeste 7 Nordeste 0 964.3 -- 83
2020-11-20 00:00:00 7.6 2 Sur 8 Sudoeste 0 964.3 -- 80
2020-11-19 23:00:00 8.6 6 Sudoeste 15 Sudoeste 0 964.3 -- 77
2020-11-19 22:00:00 9.5 6 Sur 11 Nordeste 0 964.6 -- 77
2020-11-19 21:00:00 10.6 7 Nordeste 28 Nordeste 0 965 -- 74
2020-11-19 20:00:00 11.3 18 Nordeste 35 Nordeste 0 964.6 -- 73
2020-11-19 19:00:00 12.9 14 Nordeste 28 Nordeste 0 964.3 -- 69
2020-11-19 18:00:00 15 8 Este 26 Nordeste 0 963.4 -- 63
2020-11-19 17:00:00 16.7 20 Nordeste 31 Nordeste 0 962.9 -- 59
2020-11-19 16:00:00 19.1 14 Nordeste 23 Nordeste 0 962 -- 51
2020-11-19 15:00:00 19 7 Norte 13 Nordeste 0 962.4 -- 52
2020-11-19 14:00:00 18.8 5 Norte 10 Norte 0 962.8 -- 52
2020-11-19 13:00:00 16.8 2 Sudeste 9 Sudeste 0 963.3 -- 53
2020-11-19 12:00:00 13.7 3 Sudoeste 8 Sur 0 964.5 -- 60
2020-11-19 11:00:00 9.6 4 Oeste 8 Sudeste 0 965 -- 74
2020-11-19 10:00:00 5.2 5 Nordeste 8 Nordeste 0 964.8 -- 88
2020-11-19 09:00:00 3.4 3 Oeste 6 Sudoeste 0 964.4 -- 90
2020-11-19 08:00:00 3.6 3 Sudeste 5 Sudeste 0 963.5 -- 89
2020-11-19 07:00:00 4.1 0 Calma 4 Este 0 962.6 -- 88
2020-11-19 06:00:00 4.4 2 Sudeste 5 Sur 0 962.1 -- 89
2020-11-19 05:00:00 4.6 4 Sudoeste 6 Sudoeste 0 961.7 -- 88
2020-11-19 04:00:00 5.3 5 Este 8 Este 0 961.5 -- 86
2020-11-19 03:00:00 6.1 2 Este 4 Este 0 961.2 -- 85
2020-11-19 02:00:00 6.5 0 Calma 5 Nordeste 0 961.1 -- 83
2020-11-19 01:00:00 7.2 3 Este 6 Nordeste 0 961 -- 82
2020-11-19 00:00:00 8.1 5 Nordeste 6 Nordeste 0 960.9 -- 80
2020-11-18 23:00:00 8.9 0 Calma 6 Nordeste 0 960.4 -- 78
2020-11-18 22:00:00 10.4 2 Oeste 6 Sur 0 959.8 -- 74
2020-11-18 21:00:00 11.4 0 Calma 3 Sudoeste 0 959.3 -- 73
2020-11-18 20:00:00 12.5 2 Este 5 Nordeste 0 958.9 -- 67
2020-11-18 19:00:00 14 3 Nordeste 12 Nordeste 0 958.3 -- 64
2020-11-18 18:00:00 15.5 9 Nordeste 18 Nordeste 0 957.7 -- 59
2020-11-18 17:00:00 20.5 11 Nordeste 16 Nordeste 0 957.3 -- 42
2020-11-18 16:00:00 23 4 Sudoeste 16 Sudeste 0 957.2 -- 32
2020-11-18 15:00:00 21.7 3 Nordeste 10 Sur 0 957.4 -- 37
2020-11-18 14:00:00 20.3 4 Sudoeste 12 Sudoeste 0 957.9 -- 42
2020-11-18 13:00:00 16.8 3 Oeste 8 Sudoeste 0 958.9 -- 55
2020-11-18 12:00:00 13 3 Oeste 7 Oeste 0 959.8 -- 64
2020-11-18 11:00:00 9.3 3 Sudoeste 6 Sudoeste 0 960.4 -- 76
2020-11-18 10:00:00 4.7 0 Calma 3 Sudeste 0 960.5 -- 89
2020-11-18 09:00:00 2.7 0 Calma 5 Nordeste 0 960.3 -- 88
2020-11-18 08:00:00 2.8 2 Sudoeste 5 Sur 0 959.8 -- 88
2020-11-18 07:00:00 3 0 Calma 4 Este 0 959.6 -- 87
2020-11-18 06:00:00 3.5 4 Este 5 Este 0 959.3 -- 86
2020-11-18 05:00:00 3.9 0 Calma 4 Este 0 959.1 -- 85
2020-11-18 04:00:00 4.4 3 Norte 5 Sur 0 958.9 -- 85
2020-11-18 03:00:00 4.7 3 Sudoeste 4 Sudoeste 0 958.8 -- 83
2020-11-18 02:00:00 5.4 0 Calma 4 Sudeste 0 959 -- 79
2020-11-18 01:00:00 6.1 0 Calma 5 Sudeste 0 959.3 -- 79
2020-11-18 00:00:00 7 0 Calma 4 Noroeste 0 959.3 -- 76
2020-11-17 23:00:00 7.8 3 Este 6 Nordeste 0 959.2 -- 75
2020-11-17 22:00:00 8.8 2 Nordeste 8 Sur 0 958.8 -- 72
2020-11-17 21:00:00 9.9 3 Sur 6 Sur 0 958.4 -- 68
2020-11-17 20:00:00 11.4 0 Calma 5 Este 0 958 -- 65
2020-11-17 19:00:00 13.6 0 Calma 5 Nordeste 0 957.3 -- 56
2020-11-17 18:00:00 16.6 3 Nordeste 7 Nordeste 0 956.7 -- 47
2020-11-17 17:00:00 18.9 6 Norte 8 Nordeste 0 956.7 -- 40
2020-11-17 16:00:00 19.1 4 Nordeste 7 Nordeste 0 956.9 -- 41
2020-11-17 15:00:00 18.1 3 Nordeste 7 Nordeste 0 957.2 -- 47
2020-11-17 14:00:00 15.7 3 Nordeste 14 Nordeste 0 957.7 -- 58
2020-11-17 13:00:00 12.8 4 Norte 9 Nordeste 0 958.6 -- 68
2020-11-17 12:00:00 8.5 7 Nordeste 10 Norte 0 959.5 -- 83
2020-11-17 11:00:00 6.4 4 Nordeste 6 Nordeste 0 960 -- 92
2020-11-17 10:00:00 4.4 3 Sur 5 Sur 0 960 -- 92
2020-11-17 09:00:00 3.9 3 Sudoeste 6 Oeste 0 959.7 -- 92
2020-11-17 08:00:00 4.2 2 Oeste 3 Oeste 0 958.9 -- 92
2020-11-17 07:00:00 4.1 3 Oeste 6 Sur 0 958.8 -- 91
2020-11-17 06:00:00 4.3 0 Calma 5 Oeste 0 958.6 -- 90
2020-11-17 05:00:00 4.5 3 Oeste 6 Norte 0 958.4 -- 89
2020-11-17 04:00:00 5.1 0 Calma 5 Nordeste 0 958.1 -- 88
2020-11-17 03:00:00 5.6 2 Sur 5 Sudoeste 0 958.1 -- 88
2020-11-17 02:00:00 5.8 3 Sudeste 8 Sur 0 958 -- 87
2020-11-17 01:00:00 6.6 2 Sudeste 10 Sudeste 0 958.3 -- 86
2020-11-17 00:00:00 7.5 8 Sudeste 13 Sudeste 0 958.1 -- 86
2020-11-16 23:00:00 8.4 3 Sur 6 Sur 0 958.3 -- 83
2020-11-16 22:00:00 9.4 0 Calma 6 Sudoeste 0 958.3 -- 81
2020-11-16 21:00:00 10.2 2 Sur 6 Sudeste 0 957.5 -- 77
2020-11-16 20:00:00 11.5 4 Sudeste 11 Nordeste 0 957 -- 72
2020-11-16 19:00:00 12.8 7 Nordeste 14 Nordeste 0 956.4 -- 67
2020-11-16 18:00:00 13.9 11 Nordeste 22 Nordeste 0 956 -- 65
2020-11-16 17:00:00 16 16 Nordeste 24 Nordeste 0 955.6 -- 57
2020-11-16 16:00:00 18 13 Noroeste 19 Noroeste 0 955.2 -- 47
2020-11-16 15:00:00 17.4 7 Nordeste 17 Norte 0 955.2 -- 53
2020-11-16 14:00:00 17.4 3 Noroeste 12 Nordeste 0 955.3 -- 54
2020-11-16 13:00:00 15.9 2 Norte 15 Nordeste 0 956.1 -- 60
2020-11-16 12:00:00 14.9 11 Nordeste 19 Nordeste 0 956.4 -- 62
2020-11-16 11:00:00 14.1 8 Nordeste 16 Nordeste 0 956.1 -- 66
2020-11-16 10:00:00 13.3 10 Nordeste 15 Nordeste 0 955.8 -- 70
2020-11-16 09:00:00 12.6 3 Oeste 8 Nordeste 0 955.4 -- 76
2020-11-16 08:00:00 12.4 6 Nordeste 18 Nordeste 0 954.5 -- 77
2020-11-16 07:00:00 12.5 6 Nordeste 18 Nordeste 0 953.6 -- 79
2020-11-16 06:00:00 13.5 10 Nordeste 18 Norte 0 953.5 -- 76
2020-11-16 05:00:00 15.3 11 Oeste 22 Oeste 0 952.6 -- 77
2020-11-16 04:00:00 15.4 2 Sudeste 21 Oeste 0 952.7 -- 74
2020-11-16 03:00:00 15.8 13 Oeste 25 Oeste 0 952.5 -- 73
2020-11-16 02:00:00 16 14 Oeste 26 Oeste 0 952.1 -- 72
2020-11-16 01:00:00 16.1 9 Oeste 23 Sudoeste 0 952.4 -- 71
2020-11-16 00:00:00 16.3 11 Sudoeste 18 Sudoeste 0 952.5 -- 70
2020-11-15 23:00:00 16 9 Sudoeste 16 Sudoeste 0 952.3 -- 71
2020-11-15 22:00:00 15.4 10 Sudoeste 18 Sudoeste 0 952 -- 73
2020-11-15 21:00:00 15.8 9 Sudoeste 14 Sudoeste 0 951.8 -- 72
2020-11-15 20:00:00 15.8 4 Sudoeste 14 Sudoeste 0 951.3 -- 72
2020-11-15 19:00:00 16 10 Sudoeste 17 Sudoeste 0 951.3 -- 71
2020-11-15 18:00:00 16.6 11 Sudoeste 32 Oeste 0 951.2 -- 68
2020-11-15 17:00:00 17.8 22 Oeste 43 Oeste 0 950.9 -- 63
2020-11-15 16:00:00 18.8 17 Oeste 40 Sudoeste 0 950.4 -- 59
2020-11-15 15:00:00 19.7 24 Oeste 46 Oeste 0 950.1 -- 53
2020-11-15 14:00:00 19.6 25 Oeste 46 Sudoeste 0 950.3 -- 55
2020-11-15 13:00:00 19.3 17 Oeste 33 Sudoeste 0 950.9 -- 57
2020-11-15 12:00:00 16.4 10 Oeste 16 Sudoeste 0 951.8 -- 67
2020-11-15 11:00:00 13 2 Oeste 6 Sudeste 0 952 -- 84
2020-11-15 10:00:00 10.6 2 Noroeste 6 Norte 0 952.5 -- 89
2020-11-15 09:00:00 8.3 4 Sur 6 Este 0 952.1 -- 91
2020-11-15 08:00:00 8.4 0 Calma 6 Noroeste 0 951.6 -- 90
2020-11-15 07:00:00 8.7 5 Sudeste 7 Este 0 951.6 -- 89
2020-11-15 06:00:00 8.9 3 Sudeste 12 Sudeste 0 951.6 -- 89
2020-11-15 05:00:00 9.4 8 Sur 15 Sur 0 951.6 -- 91
2020-11-15 04:00:00 8.3 6 Sudoeste 15 Sur 0 951.8 -- 90
2020-11-15 03:00:00 7.9 5 Sur 12 Sur 0 952.1 -- 91
2020-11-15 02:00:00 7.8 9 Sur 12 Sur 0 952.3 -- 91
2020-11-15 01:00:00 8.4 0 Calma 10 Sur 0 952.5 -- 90
2020-11-15 00:00:00 9.6 0 Calma 9 Sur 0 952.6 -- 90
2020-11-14 23:00:00 10.2 3 Sur 5 Sudoeste 0 952.7 -- 86
2020-11-14 22:00:00 11.3 3 Sudoeste 6 Sur 0 952.6 -- 85
2020-11-14 21:00:00 11.2 2 Sudoeste 8 Sur 0 952.4 -- 85
2020-11-14 20:00:00 11.7 3 Sur 7 Sudeste 0.2 952.3 -- 84
2020-11-14 19:00:00 12 5 Sudeste 6 Sudeste 0 951.9 -- 82
2020-11-14 18:00:00 12.3 3 Norte 6 Noroeste 0 951.7 -- 78
2020-11-14 17:00:00 12.8 3 Oeste 4 Oeste 0 951.6 -- 79
2020-11-14 16:00:00 12.9 0 Calma 3 Este 0 951.6 -- 79
2020-11-14 15:00:00 12.5 0 Calma 3 Norte 0 951.8 -- 78
2020-11-14 14:00:00 11.5 0 Calma 3 Noroeste 0 952.2 -- 78
2020-11-14 13:00:00 10.9 3 Oeste 6 Oeste 0 952.7 -- 76
2020-11-14 12:00:00 9.5 3 Sudeste 5 Este 0 953.4 -- 79
2020-11-14 11:00:00 7.3 4 Oeste 6 Oeste 0 953.5 -- 90
2020-11-14 10:00:00 5 0 Calma 5 Oeste 0 953.5 -- 92
2020-11-14 09:00:00 4.4 3 Oeste 4 Sudoeste 0 953.4 -- 92
2020-11-14 08:00:00 4.2 0 Calma 3 Sudoeste 0 953 -- 91
2020-11-14 07:00:00 4.7 0 Calma 4 Este 0 952.7 -- 91
2020-11-14 06:00:00 4.9 0 Calma 4 Nordeste 0 952.6 -- 89
2020-11-14 05:00:00 5.6 0 Calma 4 Sudeste 0 952.5 -- 88
2020-11-14 04:00:00 6.1 0 Calma 3 Oeste 0 952.7 -- 88
2020-11-14 03:00:00 6.6 2 Nordeste 5 Este 0 953 -- 87
2020-11-14 02:00:00 6.9 4 Norte 6 Norte 0 953.2 -- 87
2020-11-14 01:00:00 7.5 0 Calma 5 Este 0 953.6 -- 86
2020-11-14 00:00:00 7.9 0 Calma 4 Este 0 953.5 -- 84
2020-11-13 23:00:00 8.5 0 Calma 3 Oeste 0 953.5 -- 83
2020-11-13 22:00:00 9.1 3 Sudoeste 6 Nordeste 0 953.2 -- 83
2020-11-13 21:00:00 9.9 6 Nordeste 9 Nordeste 0 953 -- 81
2020-11-13 20:00:00 10.6 6 Nordeste 10 Nordeste 0 952.7 -- 78
2020-11-13 19:00:00 11.4 8 Nordeste 10 Nordeste 0 952.3 -- 74
2020-11-13 18:00:00 12.8 9 Este 14 Nordeste 0 951.7 -- 70
2020-11-13 17:00:00 15.2 11 Nordeste 13 Nordeste 0 951.6 -- 60
2020-11-13 16:00:00 16.3 4 Nordeste 11 Nordeste 0 951.4 -- 52
2020-11-13 15:00:00 16.2 5 Nordeste 9 Norte 0 951.7 -- 51
2020-11-13 14:00:00 16.2 3 Nordeste 6 Norte 0 952.2 -- 50
2020-11-13 13:00:00 13.9 4 Norte 8 Noroeste 0 953 -- 58
2020-11-13 12:00:00 11.1 6 Nordeste 10 Norte 0 953.9 -- 73
2020-11-13 11:00:00 8.6 2 Sudoeste 5 Sudoeste 0 954.3 -- 90
2020-11-13 10:00:00 6.2 0 Calma 7 Oeste 0 954.2 -- 92
2020-11-13 09:00:00 5.6 2 Nordeste 6 Sudeste 0 954.1 -- 91
2020-11-13 08:00:00 5.1 0 Calma 6 Este 0 953.3 -- 90
2020-11-13 07:00:00 5.8 0 Calma 4 Este 0 953.2 -- 90
2020-11-13 06:00:00 6.1 0 Calma 4 Sudoeste 0 953.2 -- 90
2020-11-13 05:00:00 6.4 2 Este 5 Sudeste 0 952.9 -- 89
2020-11-13 04:00:00 6.5 2 Noroeste 3 Oeste 0 953 -- 87
2020-11-13 03:00:00 7 0 Calma 2 Oeste 0 953.2 -- 87
2020-11-13 02:00:00 7.2 2 Este 4 Este 0 953.3 -- 87
2020-11-13 01:00:00 7.4 0 Calma 4 Nordeste 0 953.8 -- 85
2020-11-13 00:00:00 7.7 0 Calma 4 Oeste 0 953.8 -- 84
2020-11-12 23:00:00 8.1 2 Sudoeste 4 Oeste 0 953.7 -- 83
2020-11-12 22:00:00 8.8 2 Noroeste 6 Sudoeste 0 953.4 -- 82
2020-11-12 21:00:00 9.7 3 Sur 4 Sur 0 953.2 -- 78
2020-11-12 20:00:00 10.4 4 Nordeste 6 Norte 0 953.2 -- 75
2020-11-12 19:00:00 11.5 4 Nordeste 6 Este 0 953.1 -- 72
2020-11-12 18:00:00 13.2 2 Nordeste 11 Nordeste 0 952.8 -- 65
2020-11-12 17:00:00 15.2 2 Nordeste 4 Norte 0 952.8 -- 55
2020-11-12 16:00:00 15.9 3 Norte 6 Norte 0 952.8 -- 52
2020-11-12 15:00:00 15.3 3 Norte 8 Nordeste 0 953.3 -- 53
2020-11-12 14:00:00 14.3 4 Norte 8 Norte 0 954 -- 56
2020-11-12 13:00:00 12.7 3 Nordeste 6 Norte 0 954.8 -- 63
2020-11-12 12:00:00 11.3 3 Noroeste 7 Sur 0 955.7 -- 67
2020-11-12 11:00:00 8.7 3 Oeste 5 Oeste 0 956.1 -- 78
2020-11-12 10:00:00 7.1 0 Calma 4 Este 0 956.1 -- 85
2020-11-12 09:00:00 6.1 3 Nordeste 6 Norte 0 956 -- 86
2020-11-12 08:00:00 5.9 0 Calma 4 Sur 0 955.6 -- 85
2020-11-12 07:00:00 5.9 5 Nordeste 6 Nordeste 0 955.3 -- 85
2020-11-12 06:00:00 6 2 Sur 4 Sudeste 0 955.3 -- 84
2020-11-12 05:00:00 6 2 Sudeste 5 Sudoeste 0 955.3 -- 84
2020-11-12 04:00:00 6.1 3 Nordeste 4 Nordeste 0 955.4 -- 83
2020-11-12 03:00:00 6.4 2 Noroeste 8 Sur 0 955.9 -- 83
2020-11-12 02:00:00 6.6 3 Sudeste 6 Sur 0 956 -- 82
2020-11-12 01:00:00 6.8 3 Sudeste 6 Este 0 956.2 -- 81
2020-11-12 00:00:00 7.3 3 Nordeste 5 Nordeste 0 955.7 -- 79
2020-11-11 23:00:00 7.8 2 Este 8 Nordeste 0 955.8 -- 78
2020-11-11 22:00:00 9 0 Calma 6 Nordeste 0 955.3 -- 74
2020-11-11 21:00:00 10 2 Nordeste 8 Norte 0 955.1 -- 70
2020-11-11 20:00:00 11.6 3 Sudeste 14 Sur 0 954.9 -- 62
2020-11-11 19:00:00 13.5 9 Sur 13 Sur 0 954.5 -- 56
2020-11-11 18:00:00 15.5 8 Sur 13 Sudoeste 0 954.1 -- 52
2020-11-11 17:00:00 18.4 3 Sur 9 Sudoeste 0 953.9 -- 44
2020-11-11 16:00:00 19.5 4 Oeste 10 Oeste 0 953.7 -- 41
2020-11-11 15:00:00 17.4 2 Este 7 Este 0 954 -- 49
2020-11-11 14:00:00 15.5 2 Nordeste 7 Sudeste 0 954.8 -- 54
2020-11-11 13:00:00 11.6 2 Nordeste 6 Nordeste 0 955.8 -- 66
2020-11-11 12:00:00 7.1 3 Nordeste 6 Nordeste 0 956.9 -- 83
2020-11-11 11:00:00 4.5 3 Oeste 6 Oeste 0 957.7 -- 92
2020-11-11 10:00:00 3.1 5 Oeste 6 Oeste 0 958.4 -- 92
2020-11-11 09:00:00 2.4 0 Calma 4 Sur 0 958.4 -- 92
2020-11-11 08:00:00 1.7 2 Sudoeste 4 Sudoeste 0 958.3 -- 92
2020-11-11 07:00:00 2.7 0 Calma 4 Sudeste 0 958.2 -- 92
2020-11-11 06:00:00 2.8 3 Norte 5 Nordeste 0 958.1 -- 91
2020-11-11 05:00:00 3.2 0 Calma 5 Sudeste 0 958.3 -- 88
2020-11-11 04:00:00 4 0 Calma 3 Oeste 0 958.7 -- 88
2020-11-11 03:00:00 4.7 2 Noroeste 5 Sudeste 0 959.1 -- 88
2020-11-11 02:00:00 5.2 2 Sudeste 3 Este 0 959.5 -- 86
2020-11-11 01:00:00 5.9 0 Calma 4 Este 0 959.4 -- 84
2020-11-11 00:00:00 6.9 0 Calma 3 Sudoeste 0 959.4 -- 83
2020-11-10 23:00:00 7.8 0 Calma 6 Sudeste 0 959.3 -- 82
2020-11-10 22:00:00 8.4 3 Nordeste 6 Sudoeste 0 958.7 -- 79
2020-11-10 21:00:00 9.5 4 Sur 8 Sur 0 958.3 -- 75
2020-11-10 20:00:00 11 5 Sur 7 Sur 0 958.3 -- 69
2020-11-10 19:00:00 12.7 4 Oeste 7 Este 0 958 -- 63
2020-11-10 18:00:00 15.2 3 Sudeste 9 Este 0 957.6 -- 56
2020-11-10 17:00:00 17.8 3 Sudeste 9 Sudeste 0 957.4 -- 44
2020-11-10 16:00:00 18.5 4 Sur 12 Oeste 0 957.5 -- 42
2020-11-10 15:00:00 17.5 8 Sudoeste 16 Sudoeste 0 957.6 -- 45
2020-11-10 14:00:00 15.9 4 Este 10 Este 0 958.1 -- 53
2020-11-10 13:00:00 14.4 4 Nordeste 9 Nordeste 0 958.5 -- 58
2020-11-10 12:00:00 11.6 5 Nordeste 10 Nordeste 0 959.2 -- 70
2020-11-10 11:00:00 8.7 4 Nordeste 7 Nordeste 0 959.5 -- 84
2020-11-10 10:00:00 5.3 4 Este 6 Nordeste 0 959.8 -- 91
2020-11-10 09:00:00 4.2 3 Norte 4 Norte 0 959.3 -- 91
2020-11-10 08:00:00 3.7 3 Nordeste 6 Sudoeste 0 958.4 -- 90
2020-11-10 07:00:00 4.3 2 Nordeste 6 Este 0 957.8 -- 90
2020-11-10 06:00:00 4.8 5 Norte 7 Norte 0 957.6 -- 89
2020-11-10 05:00:00 5.3 0 Calma 3 Oeste 0 957.2 -- 88
2020-11-10 04:00:00 6 2 Oeste 7 Nordeste 0 957.1 -- 88
2020-11-10 03:00:00 6.7 4 Nordeste 5 Nordeste 0 957 -- 88
2020-11-10 02:00:00 7.4 4 Sur 5 Sur 0 956.8 -- 85
2020-11-10 01:00:00 8.5 0 Calma 5 Nordeste 0 956.7 -- 84
2020-11-10 00:00:00 9.2 3 Norte 8 Nordeste 0 956.6 -- 83
2020-11-09 23:00:00 10.5 0 Calma 5 Norte 0 956.5 -- 79
2020-11-09 22:00:00 10.9 5 Sudeste 13 Sur 0 956.1 -- 75
2020-11-09 21:00:00 11.5 3 Sur 9 Sudeste 0 955.6 -- 74
2020-11-09 20:00:00 12.9 4 Sur 11 Sur 0 955.3 -- 67
2020-11-09 19:00:00 14.2 6 Sur 10 Sudoeste 0 954.7 -- 60
2020-11-09 18:00:00 16.1 5 Sudoeste 10 Sudoeste 0 954 -- 54
2020-11-09 17:00:00 18.2 8 Sudoeste 15 Sudoeste 0 953.5 -- 47
2020-11-09 16:00:00 18 9 Sudoeste 18 Oeste 0 953.4 -- 47
2020-11-09 15:00:00 17.7 11 Sudoeste 17 Sudoeste 0 953.4 -- 49
2020-11-09 14:00:00 16.1 3 Sudoeste 10 Sudoeste 0 953.8 -- 61
2020-11-09 13:00:00 14.3 4 Sur 8 Sur 0 954.4 -- 66
2020-11-09 12:00:00 9.8 4 Sur 7 Sur 0 955.2 -- 81
2020-11-09 11:00:00 8 4 Este 8 Este 0.4 954.9 -- 86
2020-11-09 10:00:00 6.7 0 Calma 5 Oeste 0 954.9 -- 87
2020-11-09 09:00:00 5.4 0 Calma 4 Noroeste 0 954.7 -- 89
2020-11-09 08:00:00 4 0 Calma 4 Oeste 0 954.2 -- 89
2020-11-09 07:00:00 4.1 0 Calma 4 Nordeste 0 953.7 -- 89
2020-11-09 06:00:00 4.4 3 Nordeste 5 Norte 0 953.3 -- 89
2020-11-09 05:00:00 4.7 3 Sur 5 Sur 0 953.1 -- 87
2020-11-09 04:00:00 5.1 2 Oeste 5 Nordeste 0 953.1 -- 88
2020-11-09 03:00:00 6.1 3 Noroeste 5 Noroeste 0 953.5 -- 87
2020-11-09 02:00:00 6.4 3 Oeste 4 Oeste 0 953.4 -- 84
2020-11-09 01:00:00 7 0 Calma 5 Sudeste 0 953.9 -- 81
2020-11-09 00:00:00 7.9 3 Norte 7 Nordeste 0 953.7 -- 80
2020-11-08 23:00:00 8.8 4 Sur 6 Sudoeste 0 953.9 -- 76
2020-11-08 22:00:00 9.1 4 Sur 16 Sur 0 953.8 -- 75
2020-11-08 21:00:00 11.2 4 Sudeste 12 Sur 0 953.6 -- 66
2020-11-08 20:00:00 13.1 7 Sur 10 Sudoeste 0 953.5 -- 58
2020-11-08 19:00:00 14 5 Sur 18 Sudoeste 0 953.3 -- 54
2020-11-08 18:00:00 15.9 13 Sudoeste 27 Oeste 0 952.7 -- 47
2020-11-08 17:00:00 19.3 12 Oeste 19 Oeste 0 952.4 -- 39
2020-11-08 16:00:00 19.5 8 Oeste 17 Oeste 0 952.4 -- 40
2020-11-08 15:00:00 19.4 8 Oeste 20 Oeste 0 952.5 -- 40
2020-11-08 14:00:00 18.4 7 Oeste 24 Oeste 0 953 -- 44
2020-11-08 13:00:00 17 10 Sudoeste 23 Sudeste 0 953.8 -- 51
2020-11-08 12:00:00 15.5 15 Sur 32 Sur 0 954.9 -- 55
2020-11-08 11:00:00 12.4 4 Noroeste 9 Norte 0 955.2 -- 74
2020-11-08 10:00:00 8.2 3 Nordeste 6 Nordeste 0 955.6 -- 89
2020-11-08 09:00:00 6.4 0 Calma 6 Este 0 955.5 -- 90
2020-11-08 08:00:00 5.8 2 Este 4 Este 0 955.1 -- 90
2020-11-08 07:00:00 6.1 0 Calma 6 Sudoeste 0 955 -- 89
2020-11-08 06:00:00 6.4 4 Sur 6 Sudoeste 0 955.3 -- 89
2020-11-08 05:00:00 6.8 4 Norte 8 Nordeste 0 955.1 -- 88
2020-11-08 04:00:00 7.7 0 Calma 10 Sur 0 955.1 -- 86
2020-11-08 03:00:00 9 3 Sur 6 Nordeste 0 955.4 -- 86
2020-11-08 02:00:00 9.4 6 Nordeste 9 Nordeste 0 955.4 -- 86
2020-11-08 01:00:00 9.9 2 Nordeste 3 Norte 0 955.5 -- 85
2020-11-08 00:00:00 9.9 2 Nordeste 9 Nordeste 0 955.3 -- 84
2020-11-07 23:00:00 9.4 4 Nordeste 15 Sudeste 0 955 -- 85
2020-11-07 22:00:00 9.9 4 Sur 9 Sudeste 0 954.4 -- 81
2020-11-07 21:00:00 11.3 0 Calma 8 Sur 0 953.8 -- 78
2020-11-07 20:00:00 12 7 Sur 11 Sur 0 953.1 -- 74
2020-11-07 19:00:00 13.5 7 Sur 15 Oeste 0 952.4 -- 69
2020-11-07 18:00:00 14.1 11 Sudoeste 28 Sudoeste 0 951.6 -- 67
2020-11-07 17:00:00 15.1 19 Oeste 36 Sudoeste 0.4 951 -- 60
2020-11-07 16:00:00 16.7 19 Oeste 33 Sudoeste 0 950.7 -- 53
2020-11-07 15:00:00 17.5 17 Sudoeste 32 Sudoeste 0 950 -- 50
2020-11-07 14:00:00 15.9 16 Sur 29 Sudoeste 0 949.7 -- 59
2020-11-07 13:00:00 15.5 4 Noroeste 11 Norte 0 949.5 -- 70
2020-11-07 12:00:00 14.8 3 Sudoeste 9 Norte 0 949.4 -- 80
2020-11-07 11:00:00 13.4 5 Nordeste 10 Norte 0 949 -- 87
2020-11-07 10:00:00 12.3 2 Noroeste 6 Nordeste 0 948.7 -- 90
2020-11-07 09:00:00 11.7 2 Noroeste 7 Este 0 947.9 -- 90
2020-11-07 08:00:00 11.6 3 Este 13 Sudeste 0.6 947.3 -- 90
2020-11-07 07:00:00 11.8 6 Sudeste 16 Este 2.6 947.5 -- 90
2020-11-07 06:00:00 12.3 5 Oeste 58 Sudoeste 9.4 948 -- 87
2020-11-07 05:00:00 14.2 12 Nordeste 19 Este 0.2 945.5 -- 84
2020-11-07 04:00:00 13.9 12 Este 18 Nordeste 0 947.3 -- 86
2020-11-07 03:00:00 13.8 7 Sudoeste 10 Oeste 0 949 -- 86
2020-11-07 02:00:00 14.3 6 Nordeste 17 Nordeste 0 948.8 -- 82
2020-11-07 01:00:00 14.4 4 Nordeste 19 Nordeste 0 949.6 -- 82
2020-11-07 00:00:00 14.8 13 Nordeste 25 Nordeste 0 949.4 -- 80
2020-11-06 23:00:00 15 14 Nordeste 26 Nordeste 0 950.1 -- 79
2020-11-06 22:00:00 15.4 13 Nordeste 28 Este 0 950.4 -- 77
2020-11-06 21:00:00 15.6 13 Este 21 Este 0 950 -- 76
2020-11-06 20:00:00 15.6 12 Nordeste 23 Nordeste 0 950.6 -- 75
2020-11-06 19:00:00 15.8 17 Nordeste 27 Nordeste 0 950.1 -- 77
2020-11-06 18:00:00 17 16 Este 36 Nordeste 0 950.1 -- 70
2020-11-06 17:00:00 17.5 19 Nordeste 35 Nordeste 0 949.7 -- 69
2020-11-06 16:00:00 17.9 19 Nordeste 32 Nordeste 0 950.3 -- 70
2020-11-06 15:00:00 20.3 16 Este 33 Este 0 950.6 -- 59
2020-11-06 14:00:00 18.3 21 Este 36 Este 0 951.6 -- 66
2020-11-06 13:00:00 16.2 17 Nordeste 30 Nordeste 0 952.3 -- 76
2020-11-06 12:00:00 15.9 18 Nordeste 28 Nordeste 0 953.4 -- 74
2020-11-06 11:00:00 14.2 15 Nordeste 24 Este 0 953.9 -0.1 83
2020-11-06 10:00:00 13 15 Nordeste 26 Nordeste 0 954.2 -- 88
2020-11-06 09:00:00 12.2 10 Nordeste 20 Nordeste 0 954.5 -- 91
2020-11-06 08:00:00 11.8 14 Nordeste 22 Nordeste 0 954 -- 91
2020-11-06 07:00:00 11 9 Nordeste 17 Nordeste 0 953.8 -- 92
2020-11-06 06:00:00 9.8 5 Este 9 Norte 0 953.7 -- 90
2020-11-06 05:00:00 10.4 4 Este 22 Este 0 953.4 -- 90
2020-11-06 04:00:00 10.2 8 Este 12 Este 0 953.6 -- 89
2020-11-06 03:00:00 10.6 4 Norte 7 Norte 0 953.9 -- 88
2020-11-06 02:00:00 10.7 4 Norte 15 Este 0 954.1 -- 88
2020-11-06 01:00:00 10.7 9 Nordeste 14 Nordeste 0 954.4 -- 88
2020-11-06 00:00:00 10.6 9 Norte 14 Norte 0 954.1 -- 88
2020-11-05 23:00:00 11 7 Este 18 Nordeste 0 954 -- 86
2020-11-05 22:00:00 10.8 7 Norte 18 Nordeste 0.4 954.6 -- 89
2020-11-05 21:00:00 10.6 9 Nordeste 21 Nordeste 0.2 954.6 -- 89
2020-11-05 20:00:00 10.3 12 Nordeste 19 Nordeste 0.2 954.8 -- 89
2020-11-05 19:00:00 10.2 15 Nordeste 25 Nordeste 0 954.9 -- 88
2020-11-05 18:00:00 10.1 18 Nordeste 29 Nordeste 0 954.5 -- 87
2020-11-05 17:00:00 10.3 20 Nordeste 28 Nordeste 0 954.6 -- 86
2020-11-05 16:00:00 10.4 17 Nordeste 27 Nordeste 0 954.7 -- 84
2020-11-05 15:00:00 11.1 13 Nordeste 27 Nordeste 0 955 -- 80
2020-11-05 14:00:00 10.4 20 Nordeste 33 Nordeste 0 955.4 -- 81
2020-11-05 13:00:00 10.3 20 Nordeste 35 Nordeste 0 956.3 -- 80
2020-11-05 12:00:00 10.3 23 Nordeste 36 Nordeste 0 956.3 -- 80
2020-11-05 11:00:00 10.8 19 Nordeste 28 Nordeste 0 956.7 -- 75
2020-11-05 10:00:00 9.4 18 Nordeste 26 Nordeste 0 957 -- 82
2020-11-05 09:00:00 8.2 15 Nordeste 28 Nordeste 0 956.9 -- 89
2020-11-05 08:00:00 7.5 17 Nordeste 27 Nordeste 0 956 -- 91
2020-11-05 07:00:00 7.4 14 Nordeste 27 Nordeste 0 956.4 -- 91
2020-11-05 06:00:00 7.2 15 Nordeste 33 Nordeste 0 956.5 -- 90
2020-11-05 05:00:00 7.2 19 Nordeste 35 Nordeste 0 956.2 -- 88
2020-11-05 04:00:00 7.2 24 Nordeste 37 Nordeste 0 956.2 -- 86
2020-11-05 03:00:00 7.2 19 Nordeste 31 Nordeste 0 956.5 -- 86
2020-11-05 02:00:00 7 17 Nordeste 34 Nordeste 0 956.2 -- 87
2020-11-05 01:00:00 6.7 18 Nordeste 27 Nordeste 0 956.2 -- 87
2020-11-05 00:00:00 6.6 15 Nordeste 31 Nordeste 0 956.4 -- 87
2020-11-04 23:00:00 6.6 18 Nordeste 28 Nordeste 0 956.3 -- 86
2020-11-04 22:00:00 6.5 17 Nordeste 27 Nordeste 0 955.8 -- 85
2020-11-04 21:00:00 6.4 14 Nordeste 24 Nordeste 0 955.4 -- 85
2020-11-04 20:00:00 6.2 17 Nordeste 28 Nordeste 0.6 954.8 -- 85
2020-11-04 19:00:00 6.6 16 Nordeste 26 Nordeste 0.2 954.3 -- 83
2020-11-04 18:00:00 6.8 11 Nordeste 21 Nordeste 0.4 953.9 -- 83
2020-11-04 17:00:00 7.1 16 Nordeste 30 Nordeste 0.4 953.7 -- 81
2020-11-04 16:00:00 8 12 Nordeste 23 Este 0 953.7 -- 73
2020-11-04 15:00:00 8.3 14 Nordeste 24 Nordeste 0 953.5 -- 70
2020-11-04 14:00:00 8.5 5 Sudeste 17 Norte 0 954.1 -- 71
2020-11-04 13:00:00 8.5 12 Norte 22 Norte 0 954.4 -- 64
2020-11-04 12:00:00 8.8 4 Sudeste 11 Este 0 954.9 -- 65
2020-11-04 11:00:00 8.6 6 Este 13 Este 0 954.9 0.4 70
2020-11-04 10:00:00 7.5 4 Sur 7 Sur 0 954.9 -- 87
2020-11-04 09:00:00 6.9 3 Sudoeste 8 Sudoeste 0.2 954.5 -- 87
2020-11-04 08:00:00 6.8 5 Sudoeste 10 Sudoeste 0 954.5 -- 87
2020-11-04 07:00:00 7.7 4 Noroeste 6 Oeste 0 954.4 -- 82
2020-11-04 06:00:00 8 3 Oeste 8 Nordeste 0 954.9 -- 80
2020-11-04 05:00:00 7.9 4 Sudeste 7 Sur 0 955.2 -- 78
2020-11-04 04:00:00 7.9 2 Sudeste 7 Noroeste 0 955.7 -- 84
2020-11-04 03:00:00 8.3 3 Norte 9 Nordeste 0 956.4 -- 81
2020-11-04 02:00:00 8.6 6 Nordeste 12 Nordeste 0 956.9 -- 75
2020-11-04 01:00:00 9.1 3 Nordeste 10 Nordeste 0 957.5 -- 68
2020-11-04 00:00:00 9 8 Nordeste 18 Nordeste 0 957.9 -- 71
2020-11-03 23:00:00 9.2 13 Nordeste 21 Nordeste 0 958.2 -- 70
2020-11-03 22:00:00 9.5 4 Este 7 Este 0 958.6 -- 88
2020-11-03 21:00:00 9.6 2 Oeste 11 Oeste 0 958.9 -- 89
2020-11-03 20:00:00 9.8 3 Sudeste 7 Oeste 0.2 959 -- 87
2020-11-03 19:00:00 9.8 4 Oeste 12 Oeste 0 959.2 -- 87
2020-11-03 18:00:00 10.2 5 Oeste 9 Oeste 0.6 958.9 -- 87
2020-11-03 17:00:00 10.5 5 Norte 24 Nordeste 0.6 958.8 -- 80
2020-11-03 16:00:00 11.3 15 Nordeste 28 Nordeste 0 958.6 -- 73
2020-11-03 15:00:00 12.3 17 Nordeste 28 Nordeste 0 958.1 -- 65
2020-11-03 14:00:00 13.2 17 Nordeste 28 Nordeste 0 958.3 -- 64
2020-11-03 13:00:00 13.1 20 Nordeste 32 Nordeste 0 958.4 -- 68
2020-11-03 12:00:00 12.6 21 Nordeste 33 Nordeste 0 958.5 -- 75
2020-11-03 11:00:00 12 14 Nordeste 31 Nordeste 0 958.8 -- 83
2020-11-03 10:00:00 12.4 3 Sudoeste 19 Nordeste 0 958.5 -- 78
2020-11-03 09:00:00 11 5 Este 11 Este 0 957.4 -- 85
2020-11-03 08:00:00 10.6 2 Oeste 9 Sur 0 956.6 -- 83
2020-11-03 07:00:00 10.7 3 Sudoeste 7 Sudoeste 0 956.3 -- 83
2020-11-03 06:00:00 11 3 Nordeste 6 Nordeste 0 955.8 -- 82
2020-11-03 05:00:00 10.9 3 Sudoeste 5 Este 0 955.7 -- 82
2020-11-03 04:00:00 11.1 3 Norte 7 Sudeste 0 955.7 -- 81
2020-11-03 03:00:00 11 3 Sur 6 Sudoeste 0 955.8 -- 81
2020-11-03 02:00:00 11.5 0 Calma 5 Sudeste 0 955.5 -- 77
2020-11-03 01:00:00 11.7 3 Sudeste 7 Nordeste 0 955.5 -- 78
2020-11-03 00:00:00 11.9 5 Nordeste 6 Nordeste 0 955.5 -- 78
2020-11-02 23:00:00 13.1 2 Este 6 Este 0 955.5 -- 72
2020-11-02 22:00:00 14.1 4 Norte 8 Sur 0 955.4 -- 68
2020-11-02 21:00:00 16.4 6 Sur 7 Sur 0 955.1 -- 60
2020-11-02 20:00:00 18.2 5 Norte 9 Norte 0 954.7 -- 55
2020-11-02 19:00:00 19.3 3 Noroeste 14 Oeste 0 954.1 -- 50
2020-11-02 18:00:00 -- -- -- -- -- -- -- -- --
2020-11-02 17:00:00 -- -- -- -- -- -- -- -- --
2020-11-02 16:00:00 -- -- -- -- -- -- -- -- --
2020-11-02 15:00:00 -- -- -- -- -- -- -- -- --
2020-11-02 14:00:00 -- -- -- -- -- -- -- -- --
2020-11-02 13:00:00 -- -- -- -- -- -- -- -- --
2020-11-02 12:00:00 -- -- -- -- -- -- -- -- --
2020-11-02 11:00:00 -- -- -- -- -- -- -- -- --
2020-11-02 10:00:00 -- -- -- -- -- -- -- -- --
2020-11-02 09:00:00 -- -- -- -- -- -- -- -- --
2020-11-02 08:00:00 -- -- -- -- -- -- -- -- --
2020-11-02 07:00:00 -- -- -- -- -- -- -- -- --
2020-11-02 06:00:00 -- -- -- -- -- -- -- -- --
2020-11-02 05:00:00 -- -- -- -- -- -- -- -- --
2020-11-02 04:00:00 -- -- -- -- -- -- -- -- --
2020-11-02 03:00:00 -- -- -- -- -- -- -- -- --
2020-11-02 02:00:00 -- -- -- -- -- -- -- -- --
2020-11-02 01:00:00 -- -- -- -- -- -- -- -- --
2020-11-02 00:00:00 -- -- -- -- -- -- -- -- --
2020-11-01 23:00:00 -- -- -- -- -- -- -- -- --
2020-11-01 22:00:00 -- -- -- -- -- -- -- -- --
2020-11-01 21:00:00 -- -- -- -- -- -- -- -- --
2020-11-01 20:00:00 -- -- -- -- -- -- -- -- --
2020-11-01 19:00:00 -- -- -- -- -- -- -- -- --
2020-11-01 18:00:00 -- -- -- -- -- -- -- -- --
2020-11-01 17:00:00 -- -- -- -- -- -- -- -- --
2020-11-01 16:00:00 -- -- -- -- -- -- -- -- --
2020-11-01 15:00:00 -- -- -- -- -- -- -- -- --
2020-11-01 14:00:00 -- -- -- -- -- -- -- -- --
2020-11-01 13:00:00 -- -- -- -- -- -- -- -- --
2020-11-01 12:00:00 -- -- -- -- -- -- -- -- --
2020-11-01 11:00:00 -- -- -- -- -- -- -- -- --
2020-11-01 10:00:00 -- -- -- -- -- -- -- -- --
2020-11-01 09:00:00 -- -- -- -- -- -- -- -- --
2020-11-01 08:00:00 -- -- -- -- -- -- -- -- --
2020-11-01 07:00:00 -- -- -- -- -- -- -- -- --
2020-11-01 06:00:00 -- -- -- -- -- -- -- -- --
2020-11-01 05:00:00 -- -- -- -- -- -- -- -- --
2020-11-01 04:00:00 -- -- -- -- -- -- -- -- --
2020-11-01 03:00:00 -- -- -- -- -- -- -- -- --
2020-11-01 02:00:00 -- -- -- -- -- -- -- -- --
2020-11-01 01:00:00 -- -- -- -- -- -- -- -- --
2020-11-01 00:00:00 -- -- -- -- -- -- -- -- --
2020-10-31 23:00:00 -- -- -- -- -- -- -- -- --
2020-10-31 22:00:00 -- -- -- -- -- -- -- -- --
2020-10-31 21:00:00 -- -- -- -- -- -- -- -- --
2020-10-31 20:00:00 -- -- -- -- -- -- -- -- --
2020-10-31 19:00:00 -- -- -- -- -- -- -- -- --
2020-10-31 18:00:00 -- -- -- -- -- -- -- -- --
2020-10-31 17:00:00 -- -- -- -- -- -- -- -- --
2020-10-31 16:00:00 -- -- -- -- -- -- -- -- --
2020-10-31 15:00:00 -- -- -- -- -- -- -- -- --
2020-10-31 14:00:00 -- -- -- -- -- -- -- -- --
2020-10-31 13:00:00 -- -- -- -- -- -- -- -- --
2020-10-31 12:00:00 -- -- -- -- -- -- -- -- --
2020-10-31 11:00:00 -- -- -- -- -- -- -- -- --
2020-10-31 10:00:00 -- -- -- -- -- -- -- -- --
2020-10-31 09:00:00 -- -- -- -- -- -- -- -- --
2020-10-31 08:00:00 -- -- -- -- -- -- -- -- --
2020-10-31 07:00:00 -- -- -- -- -- -- -- -- --
2020-10-31 06:00:00 -- -- -- -- -- -- -- -- --
2020-10-31 05:00:00 -- -- -- -- -- -- -- -- --
2020-10-31 04:00:00 -- -- -- -- -- -- -- -- --
2020-10-31 03:00:00 -- -- -- -- -- -- -- -- --
2020-10-31 02:00:00 -- -- -- -- -- -- -- -- --
2020-10-31 01:00:00 7.2 3 Oeste 7 Sur 0 958.3 -- 78
2020-10-31 00:00:00 8.4 0 Calma 4 Oeste 0 958.2 -- 75
2020-10-30 23:00:00 9.5 0 Calma 5 Nordeste 0 958.2 -- 71
2020-10-30 22:00:00 10.5 5 Este 7 Este 0 958 -- 66
2020-10-30 21:00:00 12.3 0 Calma 8 Sudeste 0 957.6 -- 61
2020-10-30 20:00:00 14 4 Sur 7 Sur 0 957.2 -- 54
2020-10-30 19:00:00 16.9 0 Calma 8 Sudeste 0 956.8 -- 46
2020-10-30 18:00:00 20.9 2 Sudeste 6 Sur 0 956.3 -- 34
2020-10-30 17:00:00 22.6 0 Calma 8 Nordeste 0 956.1 -- 32
2020-10-30 16:00:00 22.3 3 Sudeste 9 Nordeste 0 956.3 -- 32
2020-10-30 15:00:00 20.5 3 Nordeste 11 Sur 0 956.8 -- 36
2020-10-30 14:00:00 19.2 3 Sudoeste 9 Oeste 0 957.5 -- 41
2020-10-30 13:00:00 16.1 3 Sudeste 9 Norte 0 958.5 -- 52
2020-10-30 12:00:00 11.9 2 Norte 8 Nordeste 0 959.5 -- 67
2020-10-30 11:00:00 7.4 4 Norte 7 Noroeste 0 959.9 -- 88
2020-10-30 10:00:00 4.7 3 Oeste 7 Oeste 0 960.3 -- 92
2020-10-30 09:00:00 3 2 Norte 4 Oeste 0 960.2 -- 91
2020-10-30 08:00:00 2.5 0 Calma 3 Norte 0 959.7 -- 91
2020-10-30 07:00:00 2.8 0 Calma 5 Nordeste 0 959.4 -- 90
2020-10-30 06:00:00 3.7 0 Calma 5 Sudoeste 0 959.4 -- 90
2020-10-30 05:00:00 4.6 3 Sudoeste 4 Sudoeste 0 959.3 -- 88
2020-10-30 04:00:00 5.4 0 Calma 7 Sur 0 959.3 -- 87
2020-10-30 03:00:00 5.9 5 Nordeste 8 Sur 0 959 -- 88
2020-10-30 02:00:00 6.4 4 Sur 6 Sur 0 959 -- 85
2020-10-30 01:00:00 7.7 4 Nordeste 6 Sur 0 958.9 -- 84
2020-10-30 00:00:00 8.5 2 Norte 6 Este 0 959 -- 82
2020-10-29 23:00:00 9.5 2 Norte 7 Sudeste 0 958.9 -- 79
2020-10-29 22:00:00 10.7 3 Sudeste 6 Sur 0 958.5 -- 74
2020-10-29 21:00:00 11.9 5 Sudeste 7 Sudeste 0 958.1 -- 71
2020-10-29 20:00:00 13.8 4 Nordeste 7 Norte 0 957.6 -- 65
2020-10-29 19:00:00 15.8 3 Nordeste 14 Sur 0 957 -- 58
2020-10-29 18:00:00 19.3 7 Sur 9 Sur 0 956.7 -- 46
2020-10-29 17:00:00 21.2 4 Sudoeste 11 Sudoeste 0 956.7 -- 40
2020-10-29 16:00:00 21.2 4 Sudoeste 14 Sudoeste 0 956.8 -- 39
2020-10-29 15:00:00 20.1 9 Oeste 18 Sudoeste 0 956.9 -- 42
2020-10-29 14:00:00 18.6 9 Sudoeste 18 Sudoeste 0 957.6 -- 50
2020-10-29 13:00:00 17.5 8 Sudoeste 18 Sudoeste 0 958.4 -- 55
2020-10-29 12:00:00 15.5 6 Sur 14 Sur 0 959.3 -- 64
2020-10-29 11:00:00 12.8 8 Nordeste 13 Nordeste 0 959.6 -- 74
2020-10-29 10:00:00 10 3 Noroeste 12 Sudeste 0 959.4 -- 83
2020-10-29 09:00:00 7.9 5 Sur 9 Sur 0 959.4 -- 91
2020-10-29 08:00:00 7.2 2 Sur 11 Sur 0 959.3 -- 91
2020-10-29 07:00:00 7 3 Sudeste 6 Sur 0 958.8 -- 91
2020-10-29 06:00:00 6.5 2 Oeste 8 Sudoeste 0 958.1 -- 91
2020-10-29 05:00:00 5.8 4 Sudoeste 7 Nordeste 0 957.9 -- 88
2020-10-29 04:00:00 6.5 5 Nordeste 9 Sudeste 0 957.5 -- 88
2020-10-29 03:00:00 7.1 5 Este 10 Nordeste 0 957.7 -- 88
2020-10-29 02:00:00 8.1 3 Este 6 Sur 0 957.5 -- 86
2020-10-29 01:00:00 9.1 2 Sudoeste 9 Nordeste 0 957.5 -- 86
2020-10-29 00:00:00 9.6 7 Norte 10 Nordeste 0 957.2 -- 83
2020-10-28 23:00:00 11.3 6 Sur 10 Sur 0 956.4 -- 80
2020-10-28 22:00:00 12.6 7 Oeste 13 Oeste 0 956.2 -- 77
2020-10-28 21:00:00 12.7 4 Sudeste 14 Oeste 0 955.8 -- 75
2020-10-28 20:00:00 13.8 7 Oeste 18 Oeste 0 955.2 -- 72
2020-10-28 19:00:00 15.1 13 Oeste 32 Oeste 0 954.5 -- 66
2020-10-28 18:00:00 17.1 21 Oeste 35 Oeste 0 953.6 -- 58
2020-10-28 17:00:00 19.8 14 Oeste 28 Oeste 0 953 -- 48
2020-10-28 16:00:00 20 14 Oeste 29 Sudoeste 0 952.8 -- 47
2020-10-28 15:00:00 19.1 16 Oeste 30 Sudoeste 0 953 -- 50
2020-10-28 14:00:00 19.4 9 Sudoeste 20 Sudoeste 0 953.2 -- 49
2020-10-28 13:00:00 16.5 12 Oeste 23 Oeste 0 953.9 -- 56
2020-10-28 12:00:00 15.3 11 Oeste 21 Oeste 0 954.3 -- 60
2020-10-28 11:00:00 12.8 4 Oeste 9 Oeste 0 954.3 -- 66
2020-10-28 10:00:00 11.5 3 Sur 9 Sudoeste 0 953.8 -- 69
2020-10-28 09:00:00 10.2 7 Sur 19 Sur 0 953.2 -- 74
2020-10-28 08:00:00 9.1 10 Sur 17 Sur 0 952.3 -- 77
2020-10-28 07:00:00 9.2 4 Sur 8 Sudeste 0 951.9 -- 76
2020-10-28 06:00:00 9.2 4 Sur 13 Sur 0 951.7 -- 74
2020-10-28 05:00:00 9.9 9 Sur 13 Sur 0 951.4 -- 72
2020-10-28 04:00:00 10.5 6 Sur 14 Sur 0 951.4 -- 70
2020-10-28 03:00:00 10.6 8 Sur 13 Sur 0 951.3 -- 71
2020-10-28 02:00:00 11 9 Sur 16 Sur 0 951.3 -- 69
2020-10-28 01:00:00 11.4 10 Sur 15 Sur 0 951.7 -- 68
2020-10-28 00:00:00 11.2 3 Sudoeste 8 Sur 0 951.7 -- 67
2020-10-27 23:00:00 11.1 8 Sur 14 Sudoeste 0 951.8 -- 67
2020-10-27 22:00:00 10.9 8 Sur 18 Sudoeste 0 951.6 -- 68
2020-10-27 21:00:00 11 10 Sudoeste 19 Oeste 0 951.3 -- 66
2020-10-27 20:00:00 11.6 12 Oeste 22 Oeste 0 950.9 -- 64
2020-10-27 19:00:00 12.4 17 Oeste 26 Oeste 0 950.5 -- 61
2020-10-27 18:00:00 14.1 14 Noroeste 33 Noroeste 0 949.7 -- 53
2020-10-27 17:00:00 15.5 17 Oeste 39 Noroeste 0 949.4 -- 48
2020-10-27 16:00:00 15.9 24 Oeste 41 Oeste 0 949.1 -- 46
2020-10-27 15:00:00 14.8 29 Oeste 44 Oeste 0 949.3 -- 47
2020-10-27 14:00:00 15.2 20 Oeste 40 Oeste 0 949.7 -- 46
2020-10-27 13:00:00 13 22 Oeste 47 Noroeste 0 950.5 -- 52
2020-10-27 12:00:00 13 31 Oeste 51 Oeste 0 951 -- 52
2020-10-27 11:00:00 11 14 Oeste 27 Oeste 0 951 -- 58
2020-10-27 10:00:00 9.7 12 Oeste 22 Sudoeste 0 951.3 -- 63
2020-10-27 09:00:00 8.9 6 Sudoeste 13 Sudoeste 0 951.2 -- 68
2020-10-27 08:00:00 8.3 9 Sudoeste 21 Oeste 0 950.9 -- 70
2020-10-27 07:00:00 8.1 8 Sudoeste 22 Oeste 0 950.6 -- 71
2020-10-27 06:00:00 7.8 10 Sudoeste 18 Oeste 0 950.7 -- 71
2020-10-27 05:00:00 7.4 11 Sur 24 Oeste 0 950.6 -- 73
2020-10-27 04:00:00 7.1 10 Oeste 22 Sudoeste 0 950.8 -- 72
2020-10-27 03:00:00 6 8 Sur 14 Sudoeste 0 950.9 -- 76
2020-10-27 02:00:00 5.5 5 Sudoeste 9 Sudoeste 0 951.2 -- 75
2020-10-27 01:00:00 5 2 Sur 10 Sudoeste 0 951.2 -- 77
2020-10-27 00:00:00 5.5 6 Nordeste 10 Este 0 951.3 -- 75
2020-10-26 23:00:00 6.7 5 Sudoeste 9 Noroeste 0 951.3 -- 70
2020-10-26 22:00:00 8.2 5 Oeste 11 Oeste 0 951 -- 64
2020-10-26 21:00:00 8.7 4 Sudeste 8 Oeste 0 950.8 -- 62
2020-10-26 20:00:00 9.4 5 Oeste 15 Oeste 0 950.7 -- 58
2020-10-26 19:00:00 10.4 13 Oeste 36 Oeste 0 949.8 -- 54
2020-10-26 18:00:00 12.2 22 Oeste 41 Oeste 0 949.1 -- 46
2020-10-26 17:00:00 13.3 21 Oeste 41 Oeste 0 948.7 -- 43
2020-10-26 16:00:00 13.1 27 Oeste 44 Oeste 0 948.3 -- 44
2020-10-26 15:00:00 12.6 24 Oeste 42 Oeste 0 948.3 -- 47
2020-10-26 14:00:00 12.1 25 Oeste 40 Oeste 0 948.5 -- 47
2020-10-26 13:00:00 10.5 20 Oeste 45 Oeste 0 948.8 -- 54
2020-10-26 12:00:00 10.6 27 Oeste 50 Oeste 0 949 -- 53
2020-10-26 11:00:00 10.1 32 Oeste 50 Oeste 0 948.3 -- 55
2020-10-26 10:00:00 8.9 25 Oeste 44 Oeste 0 947.9 -- 62
2020-10-26 09:00:00 7.5 23 Oeste 34 Oeste 0 947.3 -- 70
2020-10-26 08:00:00 6.8 6 Oeste 25 Sudoeste 0 946.6 -- 75
2020-10-26 07:00:00 6.8 8 Sudoeste 18 Sudoeste 0 945.7 -- 72
2020-10-26 06:00:00 7.2 8 Sudoeste 14 Sudoeste 0 945 -- 73
2020-10-26 05:00:00 8 5 Noroeste 19 Oeste 0 944.8 -- 71
2020-10-26 04:00:00 8.4 3 Este 23 Sudoeste 0 944.4 -- 73
2020-10-26 03:00:00 8.6 14 Oeste 24 Oeste 0 944.2 -- 72
2020-10-26 02:00:00 8.9 13 Oeste 28 Oeste 0 944.7 -- 71
2020-10-26 01:00:00 9.1 7 Oeste 26 Sudoeste 0 944.6 -- 74
2020-10-26 00:00:00 9.5 15 Sudoeste 39 Oeste 0.2 944.5 -- 74